createdAt,value
2022-12-09T00:02:05.419Z,-3.38
2022-12-09T00:04:32.443Z,-3.41
2022-12-09T00:06:59.235Z,-3.43
2022-12-09T00:09:26.075Z,-3.46
2022-12-09T00:11:52.943Z,-3.38
2022-12-09T00:14:19.748Z,-3.33
2022-12-09T00:16:46.583Z,-3.59
2022-12-09T00:19:14.952Z,-3.37
2022-12-09T00:21:43.402Z,-3.43
2022-12-09T00:24:12.420Z,-3.43
2022-12-09T00:26:39.579Z,-3.41
2022-12-09T00:29:06.281Z,-3.47
2022-12-09T00:31:35.577Z,-3.44
2022-12-09T00:34:06.371Z,-3.51
2022-12-09T00:36:33.959Z,-3.55
2022-12-09T00:39:01.381Z,-3.51
2022-12-09T00:41:29.411Z,-3.53
2022-12-09T00:43:56.643Z,-3.54
2022-12-09T00:46:23.274Z,-3.62
2022-12-09T00:48:50.101Z,-3.63
2022-12-09T00:51:19.670Z,-3.64
2022-12-09T00:53:47.540Z,-3.68
2022-12-09T00:56:14.567Z,-3.66
2022-12-09T00:58:41.287Z,-3.79
2022-12-09T01:01:07.969Z,-3.73
2022-12-09T01:03:34.715Z,-3.72
2022-12-09T01:06:01.791Z,-3.71
2022-12-09T01:08:28.549Z,-3.68
2022-12-09T01:10:55.175Z,-3.73
2022-12-09T01:13:21.765Z,-3.73
2022-12-09T01:15:48.361Z,-3.74
2022-12-09T01:18:15.047Z,-3.79
2022-12-09T01:20:41.734Z,-3.77
2022-12-09T01:23:08.565Z,-3.78
2022-12-09T01:25:38.117Z,-3.91
2022-12-09T01:28:05.059Z,-3.82
2022-12-09T01:30:31.632Z,-3.97
2022-12-09T01:32:58.252Z,-3.89
2022-12-09T01:35:24.945Z,-3.88
2022-12-09T01:37:51.885Z,-3.88
2022-12-09T01:40:19.092Z,-3.86
2022-12-09T01:42:45.759Z,-3.86
2022-12-09T01:45:30.634Z,-3.85
2022-12-09T01:48:07.197Z,-3.91
2022-12-09T01:50:36.675Z,-3.91
2022-12-09T01:53:03.800Z,-4.04
2022-12-09T01:55:30.489Z,-3.97
2022-12-09T01:57:57.109Z,-3.95
2022-12-09T02:00:23.683Z,-3.96
2022-12-09T02:02:53.394Z,-4.05
2022-12-09T02:05:22.089Z,-3.97
2022-12-09T02:07:48.835Z,-3.98
2022-12-09T02:10:17.678Z,-4.01
2022-12-09T02:13:18.678Z,-3.98
2022-12-09T02:15:52.474Z,-3.99
2022-12-09T02:18:43.803Z,-3.94
2022-12-09T02:21:21.582Z,-3.90
2022-12-09T02:23:54.910Z,-3.87
2022-12-09T02:26:29.116Z,-3.82
2022-12-09T02:29:33.156Z,-3.73
2022-12-09T02:32:05.654Z,-3.67
2022-12-09T02:34:34.722Z,-3.63
2022-12-09T02:37:19.656Z,-3.52
2022-12-09T02:40:28.118Z,-3.46
2022-12-09T02:42:57.023Z,-3.53
2022-12-09T02:45:28.109Z,-3.32
2022-12-09T02:47:58.844Z,-3.26
2022-12-09T02:50:29.458Z,-3.24
2022-12-09T02:52:59.546Z,-3.28
2022-12-09T02:55:27.323Z,-3.30
2022-12-09T02:57:59.826Z,-3.23
2022-12-09T03:00:27.723Z,-3.28
2022-12-09T03:03:04.135Z,-3.33
2022-12-09T03:05:50.233Z,-3.17
2022-12-09T03:08:48.208Z,-3.14
2022-12-09T03:11:20.701Z,-3.12
2022-12-09T03:14:06.887Z,-3.09
2022-12-09T03:16:35.942Z,-3.26
2022-12-09T03:19:32.033Z,-3.01
2022-12-09T03:22:02.937Z,-3.00
2022-12-09T03:25:07.714Z,-2.88
2022-12-09T03:27:43.606Z,-2.83
2022-12-09T03:30:11.367Z,-2.73
2022-12-09T03:32:41.158Z,-2.68
2022-12-09T03:35:42.552Z,-2.61
2022-12-09T03:38:13.319Z,-2.56
2022-12-09T03:40:41.985Z,-2.61
2022-12-09T03:43:12.228Z,-2.49
2022-12-09T03:45:40.459Z,-2.44
2022-12-09T03:48:08.484Z,-2.49
2022-12-09T03:50:45.618Z,-2.39
2022-12-09T03:53:40.835Z,-2.31
2022-12-09T03:56:23.679Z,-2.27
2022-12-09T03:58:54.583Z,-2.26
2022-12-09T04:01:24.459Z,-2.25
2022-12-09T04:03:53.689Z,-2.25
2022-12-09T04:06:20.845Z,-2.32
2022-12-09T04:08:47.510Z,-2.10
2022-12-09T04:11:14.617Z,-2.07
2022-12-09T04:13:41.266Z,-2.05
2022-12-09T04:16:08.488Z,-1.99
2022-12-09T04:18:35.276Z,-1.94
2022-12-09T04:21:06.925Z,-1.88
2022-12-09T04:23:36.746Z,-1.89
2022-12-09T04:26:08.335Z,-1.82
2022-12-09T04:28:34.887Z,-1.86
2022-12-09T04:31:01.747Z,-1.80
2022-12-09T04:33:29.972Z,-1.76
2022-12-09T04:36:05.061Z,-1.71
2022-12-09T04:38:31.754Z,-1.71
2022-12-09T04:41:00.282Z,-1.64
2022-12-09T04:43:27.734Z,-1.56
2022-12-09T04:45:55.069Z,-1.54
2022-12-09T04:48:21.845Z,-1.51
2022-12-09T04:50:48.451Z,-1.45
2022-12-09T04:53:15.134Z,-1.44
2022-12-09T04:55:42.040Z,-1.43
2022-12-09T04:58:09.004Z,-1.39
2022-12-09T05:00:36.123Z,-1.33
2022-12-09T05:03:03.203Z,-1.30
2022-12-09T05:05:30.129Z,-1.25
2022-12-09T05:07:57.840Z,-1.24
2022-12-09T05:10:24.623Z,-1.28
2022-12-09T05:12:51.803Z,-1.33
2022-12-09T05:15:18.564Z,-1.16
2022-12-09T05:17:45.384Z,-1.25
2022-12-09T05:20:13.145Z,-1.12
2022-12-09T05:22:40.177Z,-1.12
2022-12-09T05:25:07.312Z,-1.19
2022-12-09T05:27:34.392Z,-1.15
2022-12-09T05:30:01.294Z,-0.99
2022-12-09T05:32:30.944Z,-1.26
2022-12-09T05:34:57.923Z,-1.07
2022-12-09T05:37:24.659Z,-0.94
2022-12-09T05:39:51.419Z,-0.93
2022-12-09T05:42:18.343Z,-0.91
2022-12-09T05:44:44.971Z,-0.97
2022-12-09T05:47:12.123Z,-1.02
2022-12-09T05:49:39.163Z,-0.96
2022-12-09T05:52:06.276Z,-0.90
2022-12-09T05:54:33.186Z,-0.84
2022-12-09T05:57:01.419Z,-0.80
2022-12-09T05:59:28.273Z,-0.94
2022-12-09T06:01:55.266Z,-0.75
2022-12-09T06:04:22.357Z,-0.70
2022-12-09T06:06:49.830Z,-0.66
2022-12-09T06:09:16.834Z,-0.63
2022-12-09T06:11:43.774Z,-0.58
2022-12-09T06:14:11.574Z,-0.53
2022-12-09T06:16:39.070Z,-0.51
2022-12-09T06:19:05.937Z,-0.48
2022-12-09T06:21:33.008Z,-0.60
2022-12-09T06:23:59.922Z,-0.41
2022-12-09T06:26:29.855Z,-0.31
2022-12-09T06:28:58.396Z,-0.30
2022-12-09T06:31:26.100Z,-0.27
2022-12-09T06:33:55.889Z,-0.28
2022-12-09T06:36:24.895Z,-0.29
2022-12-09T06:38:51.962Z,-0.22
2022-12-09T06:41:18.799Z,-0.25
2022-12-09T06:43:45.609Z,-0.25
2022-12-09T06:46:18.747Z,-0.24
2022-12-09T06:48:46.336Z,-0.47
2022-12-09T06:51:13.662Z,-0.19
2022-12-09T06:53:40.399Z,-0.26
2022-12-09T06:56:12.179Z,-0.17
2022-12-09T06:58:41.442Z,-0.28
2022-12-09T07:01:17.243Z,-0.09
2022-12-09T07:03:46.904Z,-0.01
2022-12-09T07:06:21.277Z,0.04
2022-12-09T07:08:48.518Z,-0.21
2022-12-09T07:11:15.439Z,-0.11
2022-12-09T07:13:42.452Z,0.07
2022-12-09T07:16:09.477Z,-0.03
2022-12-09T07:18:36.641Z,0.02
2022-12-09T07:21:18.042Z,0.17
2022-12-09T07:23:45.443Z,0.28
2022-12-09T07:26:12.638Z,0.16
2022-12-09T07:28:42.671Z,0.29
2022-12-09T07:31:30.196Z,0.37
2022-12-09T07:33:59.185Z,0.32
2022-12-09T07:36:28.991Z,0.25
2022-12-09T07:38:57.924Z,0.46
2022-12-09T07:41:25.381Z,0.50
2022-12-09T07:43:52.990Z,0.54
2022-12-09T07:46:21.717Z,0.43
2022-12-09T07:48:49.340Z,0.48
2022-12-09T07:51:16.427Z,0.61
2022-12-09T07:53:43.847Z,0.59
2022-12-09T07:56:14.804Z,0.64
2022-12-09T07:58:42.474Z,0.67
2022-12-09T08:01:20.477Z,0.70
2022-12-09T08:03:48.775Z,0.72
2022-12-09T08:06:19.627Z,0.46
2022-12-09T08:08:47.654Z,0.72
2022-12-09T08:11:21.770Z,0.83
2022-12-09T08:13:49.733Z,0.75
2022-12-09T08:16:19.612Z,0.67
2022-12-09T08:18:47.535Z,0.74
2022-12-09T08:21:19.593Z,0.84
2022-12-09T08:23:46.471Z,0.94
2022-12-09T08:26:15.333Z,0.97
2022-12-09T08:28:42.277Z,0.82
2022-12-09T08:31:11.886Z,0.95
2022-12-09T08:33:40.955Z,1.03
2022-12-09T08:36:17.956Z,0.92
2022-12-09T08:38:44.963Z,1.05
2022-12-09T08:41:14.894Z,1.16
2022-12-09T08:43:42.815Z,1.24
2022-12-09T08:46:11.138Z,1.28
2022-12-09T08:48:40.843Z,1.14
2022-12-09T08:51:09.859Z,1.29
2022-12-09T08:53:36.535Z,1.29
2022-12-09T08:56:14.784Z,1.34
2022-12-09T08:58:43.252Z,1.42
2022-12-09T09:01:22.645Z,1.23
2022-12-09T09:03:49.945Z,1.42
2022-12-09T09:06:20.080Z,1.48
2022-12-09T09:08:46.993Z,1.50
2022-12-09T09:11:18.341Z,1.53
2022-12-09T09:13:47.893Z,1.56
2022-12-09T09:16:16.893Z,1.57
2022-12-09T09:18:44.787Z,1.60
2022-12-09T09:21:13.961Z,1.61
2022-12-09T09:23:41.544Z,1.46
2022-12-09T09:26:16.531Z,1.66
2022-12-09T09:28:43.249Z,1.41
2022-12-09T09:31:15.150Z,1.69
2022-12-09T09:33:42.638Z,1.68
2022-12-09T09:36:14.973Z,1.74
2022-12-09T09:38:41.765Z,1.66
2022-12-09T09:41:17.297Z,1.80
2022-12-09T09:43:44.624Z,1.80
2022-12-09T09:46:20.846Z,1.86
2022-12-09T09:48:48.535Z,1.85
2022-12-09T09:51:21.200Z,1.92
2022-12-09T09:53:51.254Z,1.97
2022-12-09T09:56:17.935Z,1.99
2022-12-09T09:59:22.210Z,2.02
2022-12-09T10:02:03.480Z,2.03
2022-12-09T10:04:42.717Z,2.07
2022-12-09T10:07:16.066Z,2.10
2022-12-09T10:09:54.775Z,2.11
2022-12-09T10:12:21.749Z,2.18
2022-12-09T10:15:05.396Z,2.18
2022-12-09T10:17:32.330Z,2.29
2022-12-09T10:20:12.505Z,2.30
2022-12-09T10:22:53.951Z,2.16
2022-12-09T10:25:52.874Z,2.28
2022-12-09T10:28:30.644Z,2.32
2022-12-09T10:30:58.165Z,2.31
2022-12-09T10:33:32.425Z,2.33
2022-12-09T10:35:59.464Z,2.31
2022-12-09T10:38:28.190Z,2.33
2022-12-09T10:41:45.636Z,2.42
2022-12-09T10:44:24.593Z,2.42
2022-12-09T10:47:28.276Z,2.47
2022-12-09T10:49:56.297Z,2.43
2022-12-09T10:52:25.168Z,2.32
2022-12-09T10:54:52.988Z,2.55
2022-12-09T10:57:19.619Z,2.62
2022-12-09T11:00:03.262Z,2.68
2022-12-09T11:02:32.750Z,2.72
2022-12-09T11:05:25.420Z,2.71
2022-12-09T11:07:54.334Z,2.71
2022-12-09T11:10:25.187Z,2.78
2022-12-09T11:13:03.660Z,2.71
2022-12-09T11:15:38.956Z,2.67
2022-12-09T11:18:23.820Z,2.88
2022-12-09T11:21:00.852Z,2.92
2022-12-09T11:23:29.025Z,2.83
2022-12-09T11:26:06.068Z,2.96
2022-12-09T11:28:40.680Z,2.90
2022-12-09T11:31:29.323Z,2.72
2022-12-09T11:34:00.708Z,2.95
2022-12-09T11:36:32.647Z,2.94
2022-12-09T11:39:19.274Z,2.91
2022-12-09T11:42:16.517Z,2.71
2022-12-09T11:44:58.483Z,2.88
2022-12-09T11:47:50.250Z,2.97
2022-12-09T11:50:31.276Z,2.88
2022-12-09T11:53:25.142Z,3.03
2022-12-09T11:56:07.153Z,3.07
2022-12-09T11:58:48.301Z,3.00
2022-12-09T12:01:41.105Z,3.18
2022-12-09T12:04:10.775Z,3.22
2022-12-09T12:06:47.835Z,3.27
2022-12-09T12:09:26.383Z,3.29
2022-12-09T12:12:10.789Z,3.35
2022-12-09T12:14:41.211Z,3.40
2022-12-09T12:17:35.049Z,3.25
2022-12-09T12:20:04.153Z,3.30
2022-12-09T12:23:26.893Z,3.62
2022-12-09T12:26:20.303Z,3.69
2022-12-09T12:29:03.980Z,3.75
2022-12-09T12:31:42.531Z,3.81
2022-12-09T12:34:25.117Z,3.84
2022-12-09T12:37:11.570Z,3.81
2022-12-09T12:39:46.339Z,3.93
2022-12-09T12:42:38.696Z,3.90
2022-12-09T12:45:36.847Z,3.90
2022-12-09T12:48:18.370Z,3.73
2022-12-09T12:50:44.887Z,3.97
2022-12-09T12:53:18.180Z,4.00
2022-12-09T12:55:49.742Z,3.91
2022-12-09T12:58:42.379Z,4.07
2022-12-09T13:01:30.122Z,4.10
2022-12-09T13:04:11.972Z,4.04
2022-12-09T13:07:06.348Z,4.21
2022-12-09T13:09:45.949Z,4.26
2022-12-09T13:12:12.418Z,4.25
2022-12-09T13:14:53.905Z,4.16
2022-12-09T13:17:28.373Z,4.16
2022-12-09T13:20:01.811Z,4.21
2022-12-09T13:22:40.981Z,4.15
2022-12-09T13:25:30.550Z,4.18
2022-12-09T13:28:12.990Z,4.10
2022-12-09T13:30:51.162Z,4.01
2022-12-09T13:33:41.515Z,4.08
2022-12-09T13:36:22.394Z,4.09
2022-12-09T13:38:49.108Z,4.00
2022-12-09T13:41:31.002Z,4.11
2022-12-09T13:44:06.654Z,4.11
2022-12-09T13:46:34.083Z,4.05
2022-12-09T13:49:10.424Z,4.07
2022-12-09T13:51:57.333Z,4.08
2022-12-09T13:54:28.693Z,4.04
2022-12-09T13:57:03.999Z,4.00
2022-12-09T13:59:47.753Z,3.96
2022-12-09T14:02:17.064Z,3.93
2022-12-09T14:04:51.035Z,3.73
2022-12-09T14:07:32.043Z,3.59
2022-12-09T14:10:00.209Z,3.78
2022-12-09T14:12:26.676Z,3.77
2022-12-09T14:15:01.885Z,3.67
2022-12-09T14:17:31.305Z,3.72
2022-12-09T14:20:21.897Z,3.72
2022-12-09T14:23:06.757Z,3.70
2022-12-09T14:25:36.105Z,3.69
2022-12-09T14:28:11.914Z,3.69
2022-12-09T14:31:00.819Z,3.65
2022-12-09T14:33:42.471Z,3.67
2022-12-09T14:36:26.621Z,3.67
2022-12-09T14:39:26.008Z,3.67
2022-12-09T14:42:07.970Z,3.62
2022-12-09T14:44:51.236Z,3.62
2022-12-09T14:47:39.649Z,3.61
2022-12-09T14:50:14.360Z,3.64
2022-12-09T14:53:01.777Z,3.57
2022-12-09T14:55:30.429Z,3.56
2022-12-09T14:57:59.992Z,3.52
2022-12-09T15:00:39.221Z,3.48
2022-12-09T15:03:36.873Z,3.46
2022-12-09T15:06:11.070Z,3.39
2022-12-09T15:08:41.566Z,3.25
2022-12-09T15:11:19.870Z,3.35
2022-12-09T15:13:49.825Z,3.25
2022-12-09T15:16:20.037Z,3.25
2022-12-09T15:18:47.276Z,3.18
2022-12-09T15:21:28.427Z,3.13
2022-12-09T15:23:55.552Z,2.93
2022-12-09T15:26:32.342Z,3.00
2022-12-09T15:29:01.190Z,2.75
2022-12-09T15:31:32.011Z,2.72
2022-12-09T15:34:07.950Z,2.78
2022-12-09T15:36:39.962Z,2.67
2022-12-09T15:39:52.144Z,2.61
2022-12-09T15:42:27.179Z,2.31
2022-12-09T15:45:09.224Z,2.39
2022-12-09T15:47:44.935Z,2.12
2022-12-09T15:50:27.521Z,2.19
2022-12-09T15:52:57.183Z,2.09
2022-12-09T15:55:36.815Z,2.00
2022-12-09T15:58:07.163Z,1.90
2022-12-09T16:00:42.466Z,1.81
2022-12-09T16:03:09.366Z,1.70
2022-12-09T16:05:41.606Z,1.54
2022-12-09T16:08:09.765Z,1.60
2022-12-09T16:10:47.429Z,1.53
2022-12-09T16:13:16.719Z,1.45
2022-12-09T16:15:53.828Z,1.26
2022-12-09T16:18:33.289Z,1.31
2022-12-09T16:21:14.906Z,1.23
2022-12-09T16:23:44.840Z,1.09
2022-12-09T16:26:19.263Z,1.07
2022-12-09T16:28:57.671Z,0.99
2022-12-09T16:31:24.478Z,0.71
2022-12-09T16:33:51.546Z,0.90
2022-12-09T16:36:24.014Z,0.81
2022-12-09T16:39:09.081Z,0.75
2022-12-09T16:41:51.076Z,0.67
2022-12-09T16:44:42.772Z,0.61
2022-12-09T16:47:18.383Z,0.57
2022-12-09T16:49:47.471Z,0.50
2022-12-09T16:52:22.751Z,0.42
2022-12-09T16:54:50.301Z,0.31
2022-12-09T16:57:19.119Z,0.29
2022-12-09T16:59:46.373Z,0.29
2022-12-09T17:02:18.928Z,0.24
2022-12-09T17:04:45.723Z,0.15
2022-12-09T17:07:12.333Z,0.01
2022-12-09T17:09:39.391Z,0.07
2022-12-09T17:12:06.646Z,0.05
2022-12-09T17:14:33.170Z,-0.14
2022-12-09T17:17:02.155Z,-0.06
2022-12-09T17:19:29.137Z,-0.10
2022-12-09T17:21:55.732Z,-0.15
2022-12-09T17:24:22.312Z,-0.24
2022-12-09T17:26:48.882Z,-0.46
2022-12-09T17:29:15.455Z,-0.27
2022-12-09T17:31:42.056Z,-0.29
2022-12-09T17:34:08.700Z,-0.33
2022-12-09T17:36:35.211Z,-0.36
2022-12-09T17:39:03.575Z,-0.32
2022-12-09T17:41:30.123Z,-0.38
2022-12-09T17:43:57.883Z,-0.47
2022-12-09T17:46:24.799Z,-0.56
2022-12-09T17:48:51.420Z,-0.46
2022-12-09T17:51:18.165Z,-0.51
2022-12-09T17:53:45.946Z,-0.53
2022-12-09T17:56:19.828Z,-0.56
2022-12-09T17:58:48.028Z,-0.60
2022-12-09T18:01:17.764Z,-0.59
2022-12-09T18:03:55.964Z,-0.64
2022-12-09T18:06:31.135Z,-0.83
2022-12-09T18:08:57.730Z,-0.69
2022-12-09T18:11:24.234Z,-0.76
2022-12-09T18:13:50.931Z,-0.74
2022-12-09T18:16:18.251Z,-0.73
2022-12-09T18:18:45.264Z,-0.78
2022-12-09T18:21:15.876Z,-0.98
2022-12-09T18:23:42.997Z,-0.85
2022-12-09T18:26:12.675Z,-0.88
2022-12-09T18:28:39.746Z,-0.92
2022-12-09T18:31:12.356Z,-0.96
2022-12-09T18:33:39.876Z,-1.21
2022-12-09T18:36:11.810Z,-0.97
2022-12-09T18:38:39.545Z,-1.07
2022-12-09T18:41:18.838Z,-1.10
2022-12-09T18:43:47.189Z,-1.20
2022-12-09T18:46:26.390Z,-1.15
2022-12-09T18:49:07.815Z,-1.08
2022-12-09T18:51:35.037Z,-1.26
2022-12-09T18:54:03.193Z,-1.27
2022-12-09T18:56:30.082Z,-1.14
2022-12-09T18:59:06.352Z,-1.14
2022-12-09T19:01:34.214Z,-1.12
2022-12-09T19:04:02.564Z,-1.17
2022-12-09T19:06:32.342Z,-1.17
2022-12-09T19:09:05.350Z,-1.23
2022-12-09T19:11:34.182Z,-1.41
2022-12-09T19:14:01.588Z,-1.22
2022-12-09T19:16:29.120Z,-1.52
2022-12-09T19:18:57.036Z,-1.23
2022-12-09T19:21:25.094Z,-1.31
2022-12-09T19:23:51.859Z,-1.24
2022-12-09T19:26:22.441Z,-1.43
2022-12-09T19:28:52.905Z,-1.28
2022-12-09T19:31:25.262Z,-1.29
2022-12-09T19:33:56.300Z,-1.44
2022-12-09T19:36:24.593Z,-1.38
2022-12-09T19:38:51.573Z,-1.32
2022-12-09T19:41:18.766Z,-1.36
2022-12-09T19:43:45.633Z,-1.47
2022-12-09T19:46:14.546Z,-1.37
2022-12-09T19:48:47.277Z,-1.41
2022-12-09T19:51:16.840Z,-1.43
2022-12-09T19:53:43.973Z,-1.43
2022-12-09T19:56:13.184Z,-1.47
2022-12-09T19:58:40.731Z,-1.45
2022-12-09T20:01:38.270Z,-1.50
2022-12-09T20:04:47.014Z,-1.77
2022-12-09T20:07:07.468Z,-1.49
2022-12-09T20:09:35.188Z,-1.56
2022-12-09T20:12:01.713Z,-1.67
2022-12-09T20:14:28.278Z,-1.67
2022-12-09T20:16:54.924Z,-1.54
2022-12-09T20:19:21.864Z,-1.60
2022-12-09T20:21:48.865Z,-1.55
2022-12-09T20:24:15.495Z,-1.70
2022-12-09T20:26:42.180Z,-1.84
2022-12-09T20:29:10.869Z,-1.56
2022-12-09T20:31:39.170Z,-1.58
2022-12-09T20:34:14.209Z,-1.54
2022-12-09T20:36:43.075Z,-1.53
2022-12-09T20:39:18.451Z,-1.56
2022-12-09T20:41:46.244Z,-1.64
2022-12-09T20:44:14.603Z,-1.88
2022-12-09T20:46:45.708Z,-1.89
2022-12-09T20:49:12.286Z,-1.60
2022-12-09T20:51:40.436Z,-1.61
2022-12-09T20:54:08.244Z,-1.80
2022-12-09T20:56:35.748Z,-1.66
2022-12-09T20:59:02.456Z,-1.81
2022-12-09T21:01:36.482Z,-1.78
2022-12-09T21:04:06.109Z,-1.64
2022-12-09T21:06:36.666Z,-1.78
2022-12-09T21:09:09.474Z,-1.95
2022-12-09T21:11:37.146Z,-1.95
2022-12-09T21:14:06.855Z,-1.78
2022-12-09T21:16:41.643Z,-1.74
2022-12-09T21:19:12.278Z,-1.80
2022-12-09T21:21:40.778Z,-1.74
2022-12-09T21:24:09.394Z,-1.77
2022-12-09T21:26:36.604Z,-1.90
2022-12-09T21:29:03.182Z,-1.89
2022-12-09T21:31:35.387Z,-2.01
2022-12-09T21:34:03.886Z,-1.81
2022-12-09T21:36:42.631Z,-1.83
2022-12-09T21:39:13.055Z,-2.18
2022-12-09T21:41:39.827Z,-2.05
2022-12-09T21:44:08.610Z,-1.95
2022-12-09T21:46:37.083Z,-1.98
2022-12-09T21:49:06.266Z,-1.97
2022-12-09T21:51:34.804Z,-1.93
2022-12-09T21:54:01.959Z,-1.95
2022-12-09T21:56:30.863Z,-2.16
2022-12-09T21:58:59.260Z,-2.15
2022-12-09T22:01:28.236Z,-1.98
2022-12-09T22:03:57.044Z,-2.05
2022-12-09T22:06:23.868Z,-2.28
2022-12-09T22:08:50.778Z,-2.08
2022-12-09T22:11:23.243Z,-2.22
2022-12-09T22:13:50.143Z,-2.09
2022-12-09T22:16:20.472Z,-2.19
2022-12-09T22:18:48.261Z,-2.17
2022-12-09T22:21:27.338Z,-2.14
2022-12-09T22:23:56.588Z,-2.18
2022-12-09T22:26:24.327Z,-2.36
2022-12-09T22:28:51.364Z,-2.20
2022-12-09T22:31:30.052Z,-2.24
2022-12-09T22:34:01.069Z,-2.24
2022-12-09T22:36:28.026Z,-2.28
2022-12-09T22:38:55.241Z,-2.41
2022-12-09T22:41:24.110Z,-2.37
2022-12-09T22:43:51.336Z,-2.35
2022-12-09T22:46:23.214Z,-2.28
2022-12-09T22:48:51.038Z,-2.28
2022-12-09T22:51:23.851Z,-2.32
2022-12-09T22:53:51.919Z,-2.32
2022-12-09T22:56:19.101Z,-2.28
2022-12-09T22:58:46.131Z,-2.28
2022-12-09T23:01:16.889Z,-2.25
2022-12-09T23:03:43.718Z,-2.48
2022-12-09T23:06:11.209Z,-2.35
2022-12-09T23:08:39.478Z,-2.30
2022-12-09T23:11:09.232Z,-2.36
2022-12-09T23:13:40.688Z,-2.32
2022-12-09T23:16:09.147Z,-2.39
2022-12-09T23:18:36.224Z,-2.40
2022-12-09T23:21:08.936Z,-2.37
2022-12-09T23:23:35.787Z,-2.37
2022-12-09T23:26:08.330Z,-2.45
2022-12-09T23:28:43.053Z,-2.55
2022-12-09T23:31:11.967Z,-2.50
2022-12-09T23:33:40.057Z,-2.46
2022-12-09T23:36:13.448Z,-2.48
2022-12-09T23:38:40.743Z,-2.52
2022-12-09T23:41:07.682Z,-2.54
2022-12-09T23:43:36.274Z,-2.60
2022-12-09T23:46:14.959Z,-2.68
2022-12-09T23:48:43.597Z,-2.76
2022-12-09T23:51:22.157Z,-2.63
2022-12-09T23:53:51.003Z,-2.62
2022-12-09T23:56:20.874Z,-2.65
2022-12-09T23:58:48.191Z,-2.71
